Time;durP1;ratioP1;P1;durP2;ratioP2;P2;SDS_P1;SDS_P2;PMS_P1;PMS_P2;Temp;Humidity;BMP_temperature;BMP_pressure;BME280_temperature;BME280_humidity;BME280_pressure;Samples;Min_cycle;Max_cycle;Signal;HPM_P1;HPM_P2
2023/10/13 00:02:05;;;;;;;56.28;33.58;;;;;;;22.01;68.39;101685.53;5995543;23;20107;-78
2023/10/13 00:04:35;;;;;;;89.15;41.78;;;;;;;22.04;67.20;101695.97;6008822;23;20038;-77
2023/10/13 00:07:12;;;;;;;73.05;40.72;;;;;;;21.45;66.50;101635.41;6012316;23;20023;-79
2023/10/13 00:09:40;;;;;;;74.18;39.38;;;;;;;21.74;66.65;101696.75;6001517;23;20113;-79
2023/10/13 00:12:13;;;;;;;85.30;42.90;;;;;;;21.55;66.63;101698.13;5984836;23;20030;-78
2023/10/13 00:14:41;;;;;;;68.13;41.15;;;;;;;21.43;67.11;101694.16;6002889;23;20339;-78
2023/10/13 00:17:15;;;;;;;83.97;41.95;;;;;;;21.31;67.72;101692.88;6000037;23;20023;-80
2023/10/13 00:19:52;;;;;;;65.13;36.67;;;;;;;21.11;67.88;101676.31;6015935;23;20023;-78
2023/10/13 00:22:19;;;;;;;71.40;39.58;;;;;;;21.05;68.30;101674.34;5996611;23;20512;-78
2023/10/13 00:24:47;;;;;;;67.65;37.90;;;;;;;21.18;68.48;101708.84;5999159;23;20317;-77
2023/10/13 00:27:30;;;;;;;72.47;38.35;;;;;;;21.20;68.44;101698.72;5974726;23;20444;-78
2023/10/13 00:30:21;;;;;;;71.25;37.83;;;;;;;21.17;68.31;101694.53;5982256;23;20446;-79
2023/10/13 00:33:06;;;;;;;68.63;34.95;;;;;;;21.22;67.93;101696.69;5995702;23;20379;-80
2023/10/13 00:35:42;;;;;;;59.42;32.47;;;;;;;20.72;68.01;101614.34;6010972;23;20111;-80
2023/10/13 00:38:16;;;;;;;58.78;33.30;;;;;;;21.20;70.08;101660.91;6015921;23;20563;-79
2023/10/13 00:40:53;;;;;;;58.38;34.20;;;;;;;21.45;67.92;101692.13;6011627;23;20027;-79
2023/10/13 00:46:05;;;;;;;62.53;33.97;;;;;;;21.38;67.36;101691.13;6006553;23;20043;-79
2023/10/13 00:48:45;;;;;;;55.33;32.75;;;;;;;21.23;67.42;101677.59;5994550;23;20098;-80
2023/10/13 00:54:12;;;;;;;57.75;32.28;;;;;;;21.41;67.85;101695.38;5985794;23;20409;-79
2023/10/13 00:56:46;;;;;;;54.37;32.60;;;;;;;21.33;68.20;101693.53;6017542;23;20019;-78
2023/10/13 00:59:15;;;;;;;55.72;32.15;;;;;;;21.19;68.22;101672.72;5990113;23;20015;-77
2023/10/13 01:01:43;;;;;;;51.58;31.02;;;;;;;21.12;68.79;101662.66;5995359;23;20046;-77
2023/10/13 01:04:15;;;;;;;49.17;31.08;;;;;;;21.36;67.92;101693.19;6022975;23;20101;-78
2023/10/13 01:06:46;;;;;;;45.50;28.35;;;;;;;21.34;68.42;101685.28;5995989;23;20376;-78
2023/10/13 01:09:24;;;;;;;53.83;29.92;;;;;;;21.40;68.70;101678.31;5981712;23;20055;-77
2023/10/13 01:11:56;;;;;;;56.22;30.05;;;;;;;21.17;67.22;101653.19;6002334;23;20775;-78
2023/10/13 01:14:29;;;;;;;44.67;27.45;;;;;;;21.41;67.25;101696.22;6005564;23;20141;-80
2023/10/13 01:16:58;;;;;;;41.97;28.15;;;;;;;21.33;67.57;101699.78;6011804;23;20030;-78
2023/10/13 01:19:29;;;;;;;48.88;28.55;;;;;;;21.39;68.83;101700.97;6021405;23;20098;-76
2023/10/13 01:22:04;;;;;;;48.90;28.58;;;;;;;21.35;67.36;101691.50;5999327;23;20022;-79
2023/10/13 01:24:34;;;;;;;42.13;25.23;;;;;;;21.43;67.88;101694.16;5994011;23;20027;-78
2023/10/13 01:27:20;;;;;;;42.38;26.15;;;;;;;21.27;68.87;101656.47;6041964;23;20034;-80
2023/10/13 01:29:56;;;;;;;33.70;21.40;;;;;;;21.17;66.71;101634.28;6031962;23;20060;-80
2023/10/13 01:32:26;;;;;;;33.00;19.60;;;;;;;21.28;67.08;101633.84;6054307;23;20086;-80
2023/10/13 01:35:05;;;;;;;31.85;20.90;;;;;;;21.48;66.59;101672.88;5989002;23;20211;-79
2023/10/13 01:37:34;;;;;;;37.17;22.05;;;;;;;21.30;67.05;101629.09;5994450;23;20110;-78
2023/10/13 01:40:01;;;;;;;32.88;18.95;;;;;;;21.66;66.32;101682.50;5993004;23;20025;-78
2023/10/13 01:42:30;;;;;;;37.63;20.63;;;;;;;21.57;65.75;101679.03;5987277;23;20023;-77
2023/10/13 01:45:05;;;;;;;36.50;22.67;;;;;;;21.55;67.47;101665.72;5992775;23;20050;-76
2023/10/13 01:47:33;;;;;;;30.58;20.25;;;;;;;21.50;67.59;101649.19;5997695;23;20089;-77
2023/10/13 01:50:21;;;;;;;31.67;19.67;;;;;;;21.10;66.61;101581.00;5995172;23;20352;-77
2023/10/13 01:52:52;;;;;;;32.80;20.30;;;;;;;21.77;68.19;101671.22;6009935;23;20114;-79
2023/10/13 01:55:19;;;;;;;34.08;20.15;;;;;;;21.73;65.35;101667.22;6045155;23;20014;-77
2023/10/13 01:57:48;;;;;;;34.83;18.52;;;;;;;21.66;65.09;101664.41;5948355;23;20027;-79
2023/10/13 02:00:20;;;;;;;30.15;19.10;;;;;;;21.44;65.12;101647.25;5996362;23;20029;-79
2023/10/13 02:02:49;;;;;;;30.05;19.60;;;;;;;21.54;65.46;101685.63;5972195;23;20129;-80
2023/10/13 02:05:19;;;;;;;34.97;21.40;;;;;;;21.53;67.18;101675.88;5987962;23;20018;-79
2023/10/13 02:07:49;;;;;;;36.28;19.27;;;;;;;21.44;65.66;101652.63;5997534;23;20308;-80
2023/10/13 02:10:28;;;;;;;29.20;19.60;;;;;;;21.76;66.25;101672.25;6011867;23;20105;-79
2023/10/13 02:12:55;;;;;;;35.72;21.50;;;;;;;21.77;67.08;101682.91;6017763;23;20254;-78
2023/10/13 02:15:26;;;;;;;32.22;20.13;;;;;;;21.50;66.84;101646.50;6034763;23;20030;-78
2023/10/13 02:17:54;;;;;;;34.65;19.38;;;;;;;21.70;65.71;101698.16;6016937;23;20387;-79
2023/10/13 02:20:41;;;;;;;29.63;20.23;;;;;;;21.57;67.76;101660.09;6009832;23;20497;-80
2023/10/13 02:23:10;;;;;;;33.92;18.40;;;;;;;21.67;64.48;101678.75;6015224;23;20026;-80
2023/10/13 02:25:42;;;;;;;33.45;18.85;;;;;;;21.56;64.26;101688.16;6023797;23;20098;-79
2023/10/13 02:28:21;;;;;;;37.85;18.23;;;;;;;21.37;65.13;101665.16;6020200;23;20023;-79
2023/10/13 02:30:50;;;;;;;32.08;19.23;;;;;;;21.38;65.02;101691.13;6034831;23;20078;-78
2023/10/13 02:33:29;;;;;;;28.88;18.67;;;;;;;21.36;65.21;101682.41;6019290;23;20043;-79
2023/10/13 02:36:03;;;;;;;33.53;19.17;;;;;;;21.22;65.13;101666.97;6009995;23;20459;-80
2023/10/13 02:41:07;;;;;;;27.45;19.52;;;;;;;21.62;65.86;101683.88;6045800;23;20118;-80
2023/10/13 02:43:35;;;;;;;32.20;18.15;;;;;;;21.52;64.95;101670.63;6014177;23;20425;-79
2023/10/13 02:46:03;;;;;;;34.90;18.00;;;;;;;21.54;65.87;101688.34;5995195;23;20030;-78
2023/10/13 02:48:39;;;;;;;30.17;19.33;;;;;;;21.72;68.36;101692.56;6002945;23;20019;-76
2023/10/13 02:51:16;;;;;;;32.83;20.35;;;;;;;21.58;65.24;101679.84;6004321;23;20530;-78
2023/10/13 02:53:48;;;;;;;32.78;19.25;;;;;;;21.50;64.46;101689.72;6020903;23;20477;-77
2023/10/13 02:56:20;;;;;;;37.80;20.10;;;;;;;21.05;64.65;101650.91;6021142;23;20027;-77
2023/10/13 02:58:56;;;;;;;36.25;20.25;;;;;;;20.99;65.17;101658.88;5997293;23;20029;-77
2023/10/13 03:01:29;;;;;;;32.80;20.02;;;;;;;21.02;65.68;101670.16;6008945;23;20041;-76
2023/10/13 03:03:58;;;;;;;32.00;18.63;;;;;;;20.98;66.23;101671.53;6007520;23;20030;-80
2023/10/13 03:06:33;;;;;;;36.78;19.55;;;;;;;21.03;66.35;101688.03;5976432;23;20078;-79
2023/10/13 03:09:19;;;;;;;35.17;20.58;;;;;;;20.97;66.82;101650.97;5982936;23;20050;-79
2023/10/13 03:11:50;;;;;;;31.33;19.27;;;;;;;21.03;65.93;101679.94;6015099;23;20018;-78
2023/10/13 03:14:31;;;;;;;32.72;19.77;;;;;;;21.03;67.42;101660.19;5982478;23;20090;-78
2023/10/13 03:17:02;;;;;;;28.20;19.33;;;;;;;21.19;68.91;101654.69;6026770;23;20484;-78
2023/10/13 03:19:34;;;;;;;34.42;19.70;;;;;;;21.30;66.88;101677.72;6027875;23;20037;-78
2023/10/13 03:22:11;;;;;;;33.83;19.85;;;;;;;21.26;65.71;101681.78;5995687;23;20038;-79
2023/10/13 03:24:44;;;;;;;39.33;20.80;;;;;;;21.20;67.38;101671.72;5996148;23;20034;-79
2023/10/13 03:27:16;;;;;;;35.95;20.70;;;;;;;21.11;66.26;101655.56;5998854;23;20290;-78
2023/10/13 03:29:56;;;;;;;43.72;20.95;;;;;;;21.05;65.67;101659.00;5964651;23;20277;-78
2023/10/13 03:32:30;;;;;;;32.78;20.48;;;;;;;21.01;65.97;101681.97;6005234;23;20018;-78
2023/10/13 03:35:53;;;;;;;37.00;20.92;;;;;;;20.92;66.07;101674.94;6000405;23;20030;-79
2023/10/13 03:37:58;;;;;;;30.02;19.52;;;;;;;20.76;66.27;101675.06;6014922;23;20033;-77
2023/10/13 03:43:06;;;;;;;35.58;19.88;;;;;;;20.79;66.34;101680.91;6021488;23;20474;-78
2023/10/13 03:45:42;;;;;;;27.80;18.08;;;;;;;20.80;66.84;101679.91;5967919;23;20083;-78
2023/10/13 03:51:15;;;;;;;33.03;18.67;;;;;;;20.85;67.12;101680.22;6004913;23;20315;-79
2023/10/13 03:53:52;;;;;;;35.25;19.50;;;;;;;20.69;67.44;101632.56;5967942;23;20449;-78
2023/10/13 03:56:39;;;;;;;45.05;18.30;;;;;;;20.96;65.38;101676.25;5965960;23;20041;-80
2023/10/13 03:59:18;;;;;;;36.85;18.70;;;;;;;20.73;65.33;101659.19;5986304;23;20286;-79
2023/10/13 04:01:58;;;;;;;37.40;19.90;;;;;;;20.83;65.33;101686.81;6025795;23;20031;-78
2023/10/13 04:07:14;;;;;;;35.15;18.73;;;;;;;20.85;66.88;101669.44;6009364;23;20027;-80
2023/10/13 04:17:45;;;;;;;28.23;18.10;;;;;;;20.79;66.71;101645.00;6028904;23;20018;-80
2023/10/13 04:20:12;;;;;;;27.38;16.80;;;;;;;20.93;66.76;101660.44;6019010;23;20023;-79
2023/10/13 04:25:39;;;;;;;28.75;18.17;;;;;;;20.48;65.56;101579.22;6031903;23;20027;-79
2023/10/13 04:28:15;;;;;;;29.73;18.17;;;;;;;21.02;65.17;101670.16;5985567;23;20462;-78
2023/10/13 04:34:15;;;;;;;30.00;18.30;;;;;;;20.90;64.96;101667.03;5914213;24;20388;-80
2023/10/13 04:36:55;;;;;;;29.08;18.25;;;;;;;20.83;65.67;101659.84;5932413;24;20392;-80
2023/10/13 04:39:35;;;;;;;27.45;18.40;;;;;;;20.92;65.09;101696.53;5986754;23;20462;-79
2023/10/13 04:42:26;;;;;;;33.38;17.95;;;;;;;20.90;65.94;101698.59;6027023;23;20259;-78
2023/10/13 04:45:05;;;;;;;33.13;18.67;;;;;;;20.75;64.98;101668.78;5970138;23;20034;-80
2023/10/13 04:47:47;;;;;;;25.63;17.92;;;;;;;20.72;64.96;101673.72;5994675;23;20078;-79
2023/10/13 04:50:27;;;;;;;24.75;17.17;;;;;;;20.85;66.15;101692.84;6003697;23;20102;-79
2023/10/13 04:53:13;;;;;;;35.22;20.45;;;;;;;20.78;64.98;101684.66;5982577;23;20402;-80
2023/10/13 04:56:07;;;;;;;31.23;18.77;;;;;;;20.65;64.96;101666.31;5982836;23;20459;-80
2023/10/13 04:59:17;;;;;;;31.85;16.80;;;;;;;20.64;66.28;101647.63;6008748;23;20400;-80
2023/10/13 06:30:33;;;;;;;23.45;15.77;;;;;;;21.09;64.22;101767.44;6022365;23;20853;-80
2023/10/13 06:33:01;;;;;;;29.60;16.90;;;;;;;20.80;63.19;101731.19;6003469;23;20015;-79
2023/10/13 06:35:41;;;;;;;26.98;16.52;;;;;;;21.07;62.94;101770.34;5973631;23;20080;-80
2023/10/13 06:38:20;;;;;;;28.80;17.50;;;;;;;21.07;62.90;101780.31;6033025;23;20027;-80
2023/10/13 06:40:52;;;;;;;28.17;18.48;;;;;;;21.12;64.28;101773.34;5986157;23;20534;-81
2023/10/13 06:43:32;;;;;;;32.28;16.83;;;;;;;21.00;64.74;101752.34;6009386;23;20476;-78
2023/10/13 06:46:03;;;;;;;40.40;18.33;;;;;;;21.21;65.22;101778.69;6009442;23;20102;-80
2023/10/13 06:48:40;;;;;;;65.13;21.25;;;;;;;21.24;63.47;101783.72;5997966;23;20090;-79
2023/10/13 06:51:26;;;;;;;79.07;21.77;;;;;;;21.20;62.95;101785.13;6007532;23;20025;-81
2023/10/13 06:54:03;;;;;;;34.50;17.45;;;;;;;20.96;62.28;101743.75;6021875;23;20034;-81
2023/10/13 06:56:39;;;;;;;50.75;19.75;;;;;;;21.08;62.89;101763.91;5999640;23;20029;-79
2023/10/13 06:59:06;;;;;;;38.10;18.58;;;;;;;21.25;63.14;101804.34;6000377;23;20079;-80
2023/10/13 07:01:40;;;;;;;29.38;16.63;;;;;;;21.12;63.83;101773.34;6012117;23;20051;-79
2023/10/13 07:04:14;;;;;;;50.90;20.30;;;;;;;21.39;63.11;101802.75;6014288;23;20078;-78
2023/10/13 07:06:51;;;;;;;36.55;19.48;;;;;;;21.49;62.34;101806.91;6044727;23;20027;-81
2023/10/13 07:12:35;;;;;;;39.95;17.48;;;;;;;21.17;62.71;101753.94;6043631;23;20039;-79
2023/10/13 07:15:10;;;;;;;36.83;18.70;;;;;;;21.48;62.75;101799.84;6016126;23;20121;-78
2023/10/13 07:17:40;;;;;;;30.10;17.95;;;;;;;21.62;62.80;101810.88;6022696;23;20042;-80
2023/10/13 07:23:03;;;;;;;31.08;18.65;;;;;;;21.82;63.47;101816.63;6036918;23;20089;-77
2023/10/13 07:25:37;;;;;;;32.22;17.20;;;;;;;21.77;62.54;101809.06;6007470;23;20041;-80
2023/10/13 07:28:15;;;;;;;38.95;19.55;;;;;;;21.89;61.50;101823.00;5990801;23;20169;-78
2023/10/13 07:31:11;;;;;;;27.70;17.63;;;;;;;21.89;61.55;101821.13;5980536;23;20334;-79
2023/10/13 07:33:43;;;;;;;41.35;20.58;;;;;;;21.86;61.74;101820.66;6016749;23;20228;-79
2023/10/13 07:36:17;;;;;;;33.40;19.08;;;;;;;21.97;62.67;101823.78;6006371;23;20042;-79
2023/10/13 07:38:59;;;;;;;24.77;15.90;;;;;;;22.07;62.85;101836.22;6006946;23;20089;-76
2023/10/13 07:42:05;;;;;;;36.00;20.00;;;;;;;22.06;62.02;101829.09;6051676;23;20037;-78
2023/10/13 07:44:45;;;;;;;39.38;18.90;;;;;;;22.12;62.19;101834.63;6010253;23;20582;-78
2023/10/13 07:47:20;;;;;;;40.75;21.92;;;;;;;22.12;61.16;101828.38;5998827;23;20035;-79
2023/10/13 07:49:50;;;;;;;44.30;22.08;;;;;;;22.26;60.94;101841.13;6045522;23;20346;-78
2023/10/13 07:55:10;;;;;;;35.88;19.10;;;;;;;22.27;62.40;101837.41;6009061;23;20033;-77
2023/10/13 07:57:56;;;;;;;36.83;18.08;;;;;;;22.26;62.46;101838.44;6008249;23;20022;-78
2023/10/13 08:05:55;;;;;;;45.15;21.45;;;;;;;22.34;61.15;101832.94;6020703;23;20615;-78
2023/10/13 08:08:25;;;;;;;43.80;22.35;;;;;;;22.48;60.71;101847.53;6006940;23;20193;-77
2023/10/13 08:11:00;;;;;;;46.08;23.58;;;;;;;22.51;61.32;101843.59;6008348;23;20447;-76
2023/10/13 08:13:38;;;;;;;49.45;25.65;;;;;;;22.51;59.75;101832.78;5992135;23;20027;-80
2023/10/13 08:19:50;;;;;;;35.83;22.98;;;;;;;22.57;60.75;101837.44;5994402;23;20459;-78
2023/10/13 08:22:38;;;;;;;47.33;23.80;;;;;;;22.73;59.76;101853.50;5987777;23;20019;-78
2023/10/13 08:25:24;;;;;;;27.35;16.00;;;;;;;22.82;60.87;101852.38;5997285;23;20303;-77
2023/10/13 08:28:46;;;;;;;36.05;20.98;;;;;;;22.74;60.53;101840.78;5958316;23;20671;-77
2023/10/13 08:31:29;;;;;;;28.70;16.67;;;;;;;22.73;60.86;101837.25;5990305;23;20472;-78
2023/10/13 08:34:16;;;;;;;60.53;26.63;;;;;;;22.80;61.48;101846.31;6026373;23;20267;-77
2023/10/13 08:36:55;;;;;;;47.13;26.10;;;;;;;22.78;60.57;101844.81;5964659;23;20090;-78
2023/10/13 08:39:58;;;;;;;53.70;29.10;;;;;;;22.70;60.36;101826.81;5973472;23;20030;-77
2023/10/13 08:48:08;;;;;;;42.15;24.58;;;;;;;22.76;58.97;101820.63;6002150;23;20104;-78
2023/10/13 08:50:52;;;;;;;59.42;31.45;;;;;;;22.95;59.29;101857.13;6000291;23;20333;-78
2023/10/13 08:53:51;;;;;;;48.53;27.75;;;;;;;22.72;59.48;101816.63;6020882;23;20030;-77
2023/10/13 08:56:34;;;;;;;57.88;30.27;;;;;;;22.95;58.78;101853.59;5984062;23;20090;-80
2023/10/13 08:59:22;;;;;;;58.50;28.48;;;;;;;22.93;60.13;101852.94;6007073;23;20053;-79
2023/10/13 09:05:36;;;;;;;55.38;30.77;;;;;;;22.98;59.49;101839.69;5954345;23;20023;-80
2023/10/13 09:08:10;;;;;;;36.30;20.52;;;;;;;23.08;59.61;101848.34;6008563;23;20034;-80
2023/10/13 09:11:10;;;;;;;69.95;32.80;;;;;;;23.14;60.32;101850.31;5964381;23;20018;-80
2023/10/13 09:13:51;;;;;;;67.80;34.53;;;;;;;23.22;59.37;101846.66;5978259;23;20276;-80
2023/10/13 09:19:12;;;;;;;60.65;30.38;;;;;;;23.23;59.73;101851.06;5982129;23;20083;-78
2023/10/13 09:21:47;;;;;;;59.53;34.13;;;;;;;23.05;59.48;101824.38;5957560;23;20306;-77
2023/10/13 09:24:51;;;;;;;62.33;32.80;;;;;;;23.28;59.58;101856.75;5989093;23;20058;-79
2023/10/13 09:27:38;;;;;;;47.95;26.60;;;;;;;23.12;59.38;101819.88;5993888;23;20674;-78
2023/10/13 09:30:10;;;;;;;55.28;31.70;;;;;;;23.41;59.01;101847.94;5967703;23;20628;-78
2023/10/13 09:32:48;;;;;;;57.78;30.75;;;;;;;23.60;58.32;101844.59;5970697;23;20427;-78
2023/10/13 09:35:31;;;;;;;63.75;33.25;;;;;;;23.74;57.90;101852.88;5957236;23;20514;-75
2023/10/13 09:38:11;;;;;;;60.83;32.83;;;;;;;23.82;57.67;101836.50;5999058;23;20019;-78
2023/10/13 09:40:50;;;;;;;58.67;33.55;;;;;;;23.79;57.37;101837.75;6003346;23;20015;-77
2023/10/13 09:43:32;;;;;;;59.25;33.67;;;;;;;24.04;57.25;101851.72;5972009;23;20539;-78
2023/10/13 09:46:17;;;;;;;48.22;24.85;;;;;;;24.21;57.86;101846.03;5962228;23;20023;-78
2023/10/13 09:49:07;;;;;;;57.05;30.17;;;;;;;24.40;55.71;101845.34;5948832;23;20023;-77
2023/10/13 09:51:45;;;;;;;65.45;32.17;;;;;;;24.52;55.50;101849.22;5953702;23;20026;-78
2023/10/13 09:54:41;;;;;;;49.97;28.13;;;;;;;24.41;55.94;101836.16;5982713;23;20033;-76
2023/10/13 09:57:34;;;;;;;50.80;28.63;;;;;;;24.50;56.18;101839.59;5972319;23;20046;-77
2023/10/13 10:06:30;;;;;;;45.75;24.58;;;;;;;24.64;56.83;101845.94;5971765;23;20198;-79
2023/10/13 10:09:13;;;;;;;54.60;25.90;;;;;;;24.61;56.27;101820.00;6018337;23;20027;-78
2023/10/13 10:12:20;;;;;;;36.15;22.88;;;;;;;24.73;58.01;101833.88;5968186;23;20517;-79
2023/10/13 10:15:18;;;;;;;30.40;19.75;;;;;;;24.64;56.30;101786.22;6014031;23;20030;-77
2023/10/13 10:17:56;;;;;;;46.38;26.98;;;;;;;25.07;54.68;101827.53;6027571;23;20057;-79
2023/10/13 10:20:48;;;;;;;39.80;24.77;;;;;;;25.12;54.57;101826.94;5985603;23;20018;-78
2023/10/13 10:23:48;;;;;;;51.60;30.38;;;;;;;25.19;54.17;101827.84;5951458;23;20014;-79
2023/10/13 10:26:25;;;;;;;51.72;29.15;;;;;;;25.01;55.55;101792.22;5973326;23;20322;-79
2023/10/13 10:29:17;;;;;;;43.90;23.15;;;;;;;25.30;56.25;101824.53;5990717;23;20181;-79
2023/10/13 10:31:59;;;;;;;54.50;28.67;;;;;;;25.40;53.75;101826.88;5965525;23;20479;-78
2023/10/13 10:34:35;;;;;;;39.78;22.73;;;;;;;25.48;54.52;101817.69;5991353;23;20031;-79
2023/10/13 10:37:18;;;;;;;64.03;31.77;;;;;;;25.60;52.34;101818.75;6036093;23;20499;-78
2023/10/13 10:39:49;;;;;;;39.28;23.42;;;;;;;25.48;54.59;101809.53;5998686;23;20399;-79
2023/10/13 10:42:29;;;;;;;66.40;35.90;;;;;;;25.57;53.45;101814.56;5948088;23;20085;-78
2023/10/13 10:45:08;;;;;;;46.53;28.70;;;;;;;25.64;53.22;101797.44;5968751;23;20642;-79
2023/10/13 10:47:38;;;;;;;64.13;34.05;;;;;;;25.52;53.38;101795.31;5961599;23;20027;-78
2023/10/13 10:50:26;;;;;;;47.03;28.05;;;;;;;25.49;53.98;101790.28;5953528;23;20770;-79
2023/10/13 10:52:57;;;;;;;58.63;29.73;;;;;;;25.55;54.89;101800.31;5971601;23;20414;-79
2023/10/13 10:55:29;;;;;;;47.80;26.58;;;;;;;25.64;55.18;101792.00;5952385;23;20023;-77
2023/10/13 10:58:01;;;;;;;33.80;21.85;;;;;;;25.49;55.96;101778.59;5953447;23;20106;-79
2023/10/13 11:00:45;;;;;;;40.88;25.17;;;;;;;25.59;55.68;101789.88;5994649;23;20030;-79
2023/10/13 11:03:42;;;;;;;74.07;38.53;;;;;;;25.42;54.25;101775.03;6021553;23;20023;-79
2023/10/13 11:06:19;;;;;;;84.65;43.05;;;;;;;25.49;54.02;101775.88;5967572;23;20303;-79
2023/10/13 11:12:06;;;;;;;49.83;28.15;;;;;;;25.31;55.54;101776.44;6030163;23;20015;-78
2023/10/13 11:14:40;;;;;;;36.15;22.48;;;;;;;25.20;56.16;101760.78;6024149;23;20078;-78
2023/10/13 11:17:41;;;;;;;52.42;31.63;;;;;;;24.94;55.54;101711.53;5993959;23;20027;-77
2023/10/13 11:23:04;;;;;;;74.38;37.08;;;;;;;25.27;53.30;101745.28;6009433;23;20128;-78
2023/10/13 11:25:35;;;;;;;69.90;36.60;;;;;;;25.42;53.63;101766.88;5964407;23;20019;-79
2023/10/13 11:28:29;;;;;;;57.05;28.13;;;;;;;25.20;55.33;101741.75;5962331;23;20039;-80
2023/10/13 11:30:58;;;;;;;52.33;30.90;;;;;;;25.08;55.80;101739.59;5959057;23;20331;-79
2023/10/13 11:33:31;;;;;;;78.70;38.77;;;;;;;24.88;54.14;101696.06;5957404;23;20026;-78
2023/10/13 11:36:13;;;;;;;70.40;33.25;;;;;;;25.12;55.26;101756.31;5957148;23;20487;-79
2023/10/13 11:38:57;;;;;;;43.55;24.95;;;;;;;25.00;56.62;101730.78;5972226;23;20282;-80
2023/10/13 11:41:45;;;;;;;34.75;21.33;;;;;;;25.12;57.18;101746.28;5970585;23;20081;-79
2023/10/13 11:44:24;;;;;;;35.13;22.50;;;;;;;24.98;57.42;101741.00;5957004;23;20485;-80
2023/10/13 11:47:16;;;;;;;61.67;30.50;;;;;;;24.83;57.32;101741.16;5989839;23;20027;-78
2023/10/13 11:49:56;;;;;;;56.10;30.55;;;;;;;24.84;57.13;101738.25;5987899;23;20019;-78
2023/10/13 11:52:29;;;;;;;33.13;21.08;;;;;;;24.94;57.49;101714.25;5977712;23;20236;-78
2023/10/13 11:55:00;;;;;;;29.95;19.70;;;;;;;24.87;58.19;101726.97;5989029;23;20030;-79
2023/10/13 11:57:33;;;;;;;40.17;21.73;;;;;;;24.64;58.02;101696.63;5965969;23;20025;-80
2023/10/13 12:08:52;;;;;;;41.50;25.20;;;;;;;24.95;55.98;101705.09;5989264;23;20042;-79
2023/10/13 12:11:31;;;;;;;60.58;28.48;;;;;;;24.80;56.08;101692.69;5953825;23;20451;-78
2023/10/13 12:14:11;;;;;;;45.78;23.23;;;;;;;24.67;57.10;101650.06;5942985;23;20035;-79
2023/10/13 12:16:38;;;;;;;40.15;21.90;;;;;;;24.87;56.70;101688.94;5948241;23;20396;-78
2023/10/13 12:19:11;;;;;;;33.03;21.67;;;;;;;24.81;57.74;101681.66;5959983;23;20326;-80
2023/10/13 12:21:50;;;;;;;49.85;29.55;;;;;;;24.96;55.16;101686.91;6000022;23;20074;-79
2023/10/13 12:27:26;;;;;;;49.28;23.83;;;;;;;24.78;57.60;101673.88;5990570;23;20029;-78
2023/10/13 12:30:07;;;;;;;44.72;23.05;;;;;;;24.75;58.05;101677.03;5981423;23;20019;-76
2023/10/13 12:32:53;;;;;;;44.22;26.02;;;;;;;24.65;57.21;101663.84;5957733;23;20066;-78
2023/10/13 12:35:35;;;;;;;56.95;30.52;;;;;;;24.66;57.19;101665.53;5970925;23;20412;-78
2023/10/13 12:38:36;;;;;;;56.22;28.40;;;;;;;24.68;56.94;101659.88;5961183;23;20058;-80
2023/10/13 12:49:57;;;;;;;58.95;29.52;;;;;;;24.77;55.43;101653.22;5970517;23;20031;-79
2023/10/13 12:52:25;;;;;;;59.75;29.77;;;;;;;24.84;54.88;101650.53;6019305;23;20070;-80
2023/10/13 12:55:06;;;;;;;34.80;21.90;;;;;;;24.83;56.22;101641.53;5979733;23;20018;-80
2023/10/13 12:57:43;;;;;;;40.60;24.17;;;;;;;24.82;56.90;101655.31;5973653;23;20019;-78
2023/10/13 13:00:20;;;;;;;34.92;22.35;;;;;;;24.76;57.84;101639.84;5965520;23;20023;-77
2023/10/13 13:02:58;;;;;;;37.88;23.15;;;;;;;24.65;56.98;101639.41;5968729;23;20027;-78
2023/10/13 13:05:30;;;;;;;45.83;26.48;;;;;;;24.71;55.59;101638.59;5955898;23;20075;-77
2023/10/13 13:08:05;;;;;;;41.15;22.95;;;;;;;24.78;55.60;101648.63;5983277;23;20020;-79
2023/10/13 13:10:45;;;;;;;36.08;19.92;;;;;;;24.76;57.92;101642.53;5959382;23;20468;-77
2023/10/13 13:13:24;;;;;;;46.78;24.98;;;;;;;24.50;54.91;101607.00;5959425;23;20027;-76
2023/10/13 13:15:56;;;;;;;36.75;21.40;;;;;;;24.69;57.36;101629.81;5963758;23;20589;-77
2023/10/13 13:18:29;;;;;;;37.15;22.65;;;;;;;24.67;57.92;101622.91;5968421;23;20024;-78
2023/10/13 13:21:06;;;;;;;31.25;19.33;;;;;;;24.76;58.09;101627.13;5972274;23;20787;-77
2023/10/13 13:23:44;;;;;;;31.33;20.55;;;;;;;24.81;57.81;101619.19;5977852;23;20033;-77
2023/10/13 13:26:18;;;;;;;32.55;20.98;;;;;;;24.74;57.59;101612.91;5935904;23;20031;-78
2023/10/13 13:28:50;;;;;;;36.45;21.75;;;;;;;24.58;57.93;101607.84;5990858;23;20029;-77
2023/10/13 13:31:17;;;;;;;;;;;;;;;24.58;56.80;101616.00;5957895;23;20062;-79
2023/10/13 13:33:44;;;;;;;44.28;25.65;;;;;;;24.67;57.90;101612.06;5959904;23;20492;-76
2023/10/13 13:36:16;;;;;;;38.08;20.38;;;;;;;24.55;57.62;101591.97;5956115;23;20269;-78
2023/10/13 13:38:51;;;;;;;36.42;22.13;;;;;;;24.69;58.06;101615.41;5956664;23;20114;-76
2023/10/13 13:41:18;;;;;;;39.60;23.83;;;;;;;24.62;57.67;101614.56;5964461;23;20228;-77
2023/10/13 13:44:08;;;;;;;61.97;27.50;;;;;;;24.50;55.88;101595.31;5978616;23;20020;-77
2023/10/13 13:46:47;;;;;;;31.42;21.05;;;;;;;24.57;57.47;101611.63;5938313;23;20031;-77
2023/10/13 13:49:28;;;;;;;38.88;21.58;;;;;;;24.66;57.84;101613.94;5960861;23;20019;-75
2023/10/13 13:52:07;;;;;;;35.88;23.45;;;;;;;24.76;56.83;101605.41;5936712;23;20255;-78
2023/10/13 13:54:42;;;;;;;;;;;;;;;24.63;57.60;101606.19;5968828;23;20258;-78
2023/10/13 13:57:13;;;;;;;40.47;24.23;;;;;;;24.42;57.69;101576.44;5957558;23;19922;-78
2023/10/13 13:59:47;;;;;;;42.72;21.67;;;;;;;24.62;57.32;101595.56;5959185;23;20039;-78
2023/10/13 14:02:20;;;;;;;32.08;21.05;;;;;;;24.60;57.63;101600.34;5967214;23;20031;-77
2023/10/13 14:05:02;;;;;;;42.60;21.60;;;;;;;24.71;57.64;101594.28;5962988;23;20023;-79
2023/10/13 14:07:36;;;;;;;44.33;23.27;;;;;;;24.63;56.81;101605.34;5986417;23;20035;-76
2023/10/13 14:10:16;;;;;;;44.65;23.75;;;;;;;24.57;57.23;101584.47;5979426;23;20365;-78
2023/10/13 14:12:49;;;;;;;46.25;24.27;;;;;;;24.60;57.11;101592.19;6006410;23;20034;-77
2023/10/13 14:15:23;;;;;;;36.05;22.77;;;;;;;24.61;57.96;101580.28;5975539;23;20094;-78
2023/10/13 14:18:05;;;;;;;44.17;24.40;;;;;;;24.60;57.59;101578.63;5964514;23;20263;-79
2023/10/13 14:20:46;;;;;;;42.08;22.20;;;;;;;24.41;58.09;101558.50;5951653;23;20573;-78
2023/10/13 14:23:22;;;;;;;44.47;20.25;;;;;;;24.61;57.67;101570.25;5956329;23;20240;-77
2023/10/13 14:26:01;;;;;;;45.88;22.20;;;;;;;24.68;57.27;101581.13;5959377;23;20351;-77
2023/10/13 14:28:34;;;;;;;44.88;23.33;;;;;;;24.68;57.75;101573.00;5977701;23;20047;-80
2023/10/13 14:31:12;;;;;;;46.85;25.63;;;;;;;24.55;56.49;101578.41;5974774;23;20015;-77
2023/10/13 14:33:49;;;;;;;48.58;23.02;;;;;;;24.52;58.58;101572.34;5989707;23;20125;-81
2023/10/13 14:36:19;;;;;;;46.47;23.98;;;;;;;24.49;58.15;101561.03;5988662;23;20026;-80
2023/10/13 14:38:52;;;;;;;51.90;25.02;;;;;;;24.53;57.08;101567.75;5999137;23;20025;-77
2023/10/13 14:41:19;;;;;;;42.67;22.70;;;;;;;24.55;57.29;101564.84;5955665;23;20415;-79
2023/10/13 14:43:49;;;;;;;42.67;22.33;;;;;;;24.39;57.38;101528.00;6009264;23;20019;-76
2023/10/13 14:46:17;;;;;;;37.88;22.35;;;;;;;24.35;57.66;101538.44;5973771;23;20469;-79
2023/10/13 14:48:44;;;;;;;51.10;24.42;;;;;;;24.30;57.51;101524.66;5970263;23;20083;-77
2023/10/13 14:51:18;;;;;;;46.35;22.95;;;;;;;24.50;56.86;101541.84;6011176;23;20019;-78
2023/10/13 14:53:47;;;;;;;42.90;24.50;;;;;;;24.50;56.76;101547.28;5977574;23;20110;-78
2023/10/13 14:56:17;;;;;;;39.43;21.47;;;;;;;24.45;58.12;101521.78;5999140;23;20520;-78
2023/10/13 14:58:46;;;;;;;40.50;21.05;;;;;;;24.58;58.37;101553.56;6015059;23;20127;-76